Westford, New York
Current Conditions -  °F | °C
As of 3:30 PM on Friday 28 Nov 2014 (Local Time) from KNY0 Reporting Station
Overcast Overcast  
Wind Chill: 12°   Ceiling: 2800
Heat Index: 24°   Visibility: 10mi
Dew Point: 16°   Wind: 12mph
Humidity: 73%   Direction: 270°W
Pressure: 30.13"   Gusts: 25mph
Location:  42.65°N, 74.8°W
Report Text: KNY0 282030Z AUTO 27010G22KT 10SM SCT022 BKN028 OVC050 M05/M09 A3013 RMK AO2 T10471089
Loading
Personal Weather Stations






























Interactive Weather Map New forecast layout! Learn more

10-Day Weather Forecast

Advertisements
Track Severe Weather on mobile